»·PEaware :: N530VA KBUR-KLAS

N530VA :: KBUR-KLAS

FLIGHT INFORMATION

Flight Status: Arrived
Operator: Privately registered:
United States
More flights under this callsign
Pilot: Anonymous 16260 (16260)
Aircraft: AIRBUS A319
(A319)
More flights by this aircraft type
Origin: KBUR Bob Hope-Burbank
United States
Destination: KLAS McCarran Intl
United States
More flights between these airports :: More routes between these airports
Route: +SLAPP1 MISEN KEPEC6
File this flight plan on PilotEdge
Remarks: PLEASE SPEAK SLOW - I5 RATING
Altitude:
(Current/Filed)
27,000ft
Speed:
(Current/Filed)
425kts
Departed: 03-Feb-19 11:34 AM
Arrived: 03-Feb-19 12:30 PM
Distance/Time
Traveled:
194nm/0:56
Distance/Time
To Go:
Arrived

Flight Plot

Page will automatically refresh every two minutes.

Flight plan parsing failed; only flown route is shown


Map Options




Map Legend


Flown Route
Filed Route
Departure Airport
Arrival Airport
Navaid (VOR, NDB)
Fix

Horizontal Profiles

Position Reports

Time Latitude Longitude Heading Altitude Ground
Speed
03-Feb-19 10:54 34.196787 -118.352824 178 786ft 0kts
03-Feb-19 10:55 34.196787 -118.352825 178 786ft 0kts
03-Feb-19 10:56 34.196787 -118.352825 178 786ft 0kts
03-Feb-19 10:58 34.196787 -118.352824 178 786ft 0kts
03-Feb-19 10:59 34.196787 -118.352824 178 786ft 0kts
03-Feb-19 11:00 34.196787 -118.352824 178 786ft 0kts
03-Feb-19 11:01 34.196787 -118.352824 178 786ft 0kts
03-Feb-19 11:02 34.196787 -118.352824 178 786ft 0kts
03-Feb-19 11:03 34.196787 -118.352824 178 786ft 0kts
03-Feb-19 11:04 34.196787 -118.352824 178 786ft 0kts
03-Feb-19 11:05 34.196787 -118.352824 178 786ft 0kts
03-Feb-19 11:06 34.196787 -118.352824 178 786ft 0kts
03-Feb-19 11:07 34.196787 -118.352824 178 786ft 0kts
03-Feb-19 11:08 34.196787 -118.352824 178 786ft 0kts
03-Feb-19 11:09 34.196787 -118.352824 178 786ft 0kts
03-Feb-19 11:10 34.196787 -118.352824 178 786ft 0kts
03-Feb-19 11:11 34.196787 -118.352824 178 786ft 0kts
03-Feb-19 11:12 34.196787 -118.352824 178 786ft 0kts
03-Feb-19 11:13 34.196787 -118.352824 178 786ft 0kts
03-Feb-19 11:14 34.196787 -118.352824 178 786ft 0kts
03-Feb-19 11:15 34.196787 -118.352824 178 786ft 0kts
03-Feb-19 11:16 34.196787 -118.352824 178 786ft 0kts
03-Feb-19 11:16 34.196787 -118.352824 178 786ft 0kts
03-Feb-19 11:17 34.196787 -118.352824 178 786ft 0kts
03-Feb-19 11:19 34.196787 -118.352824 178 786ft 0kts
03-Feb-19 11:19 34.196788 -118.352824 178 786ft 0kts
03-Feb-19 11:20 34.197214 -118.352844 178 786ft 1kts
03-Feb-19 11:21 34.197356 -118.353058 89 786ft 0kts
03-Feb-19 11:23 34.197356 -118.353057 89 786ft 0kts
03-Feb-19 11:23 34.197312 -118.353038 190 786ft 1kts
03-Feb-19 11:24 34.197214 -118.354869 271 786ft 12kts
03-Feb-19 11:25 34.196784 -118.357304 238 786ft 1kts
03-Feb-19 11:26 34.198025 -118.355287 20 786ft 15kts
03-Feb-19 11:27 34.202903 -118.356499 346 786ft 19kts
03-Feb-19 11:28 34.208729 -118.358106 347 786ft 23kts
03-Feb-19 11:29 34.211568 -118.358973 323 786ft 0kts
03-Feb-19 11:30 34.211568 -118.358973 323 786ft 0kts
03-Feb-19 11:31 34.211568 -118.358973 323 786ft 0kts
03-Feb-19 11:32 34.210939 -118.360081 167 786ft 17kts
03-Feb-19 11:33 34.179678 -118.352295 165 1400ft 164kts
03-Feb-19 11:34 34.144155 -118.380965 228 2892ft 201kts
03-Feb-19 11:35 34.106372 -118.437605 228 4027ft 223kts
03-Feb-19 11:36 34.095675 -118.503692 315 5179ft 246kts
03-Feb-19 11:37 34.163004 -118.519126 352 8198ft 258kts
03-Feb-19 11:38 34.237014 -118.525265 352 9024ft 277kts
03-Feb-19 11:39 34.304511 -118.491547 54 9022ft 300kts
03-Feb-19 11:40 34.355587 -118.411495 50 9032ft 300kts
03-Feb-19 11:41 34.419357 -118.350675 15 9523ft 301kts
03-Feb-19 11:42 34.494614 -118.301067 36 11488ft 347kts
03-Feb-19 11:43 34.574588 -118.220141 35 13184ft 392kts
03-Feb-19 11:44 34.657808 -118.131072 52 15641ft 411kts
03-Feb-19 11:45 34.687038 -117.998180 79 18080ft 417kts
03-Feb-19 11:46 34.698341 -117.855810 86 19885ft 430kts
03-Feb-19 11:47 34.706369 -117.708867 88 21574ft 442kts
03-Feb-19 11:48 34.711917 -117.558029 88 23145ft 453kts
03-Feb-19 11:49 34.739944 -117.407179 70 24551ft 466kts
03-Feb-19 11:50 34.780904 -117.255181 71 25859ft 477kts
03-Feb-19 11:51 34.821817 -117.100019 72 26949ft 488kts
03-Feb-19 11:52 34.862991 -116.943143 72 26954ft 487kts
03-Feb-19 11:53 34.903999 -116.786115 72 26954ft 487kts
03-Feb-19 11:54 34.966136 -116.642547 51 26668ft 471kts
03-Feb-19 11:55 35.039965 -116.513755 52 25183ft 457kts
03-Feb-19 11:56 35.113069 -116.390070 44 23590ft 440kts
03-Feb-19 11:57 35.196431 -116.285012 41 21990ft 423kts
03-Feb-19 11:58 35.277251 -116.183687 42 20396ft 409kts
03-Feb-19 11:59 35.355199 -116.085527 42 18833ft 397kts
03-Feb-19 12:00 35.430945 -115.989873 42 17285ft 385kts
03-Feb-19 12:01 35.504376 -115.896920 42 15768ft 374kts
03-Feb-19 12:02 35.576023 -115.806019 42 14149ft 372kts
03-Feb-19 12:03 35.644538 -115.718618 41 13105ft 328kts
03-Feb-19 12:04 35.708295 -115.637391 41 12998ft 335kts
03-Feb-19 12:05 35.775267 -115.573105 356 12989ft 271kts
03-Feb-19 12:06 35.849707 -115.569941 352 12998ft 268kts
03-Feb-19 12:07 35.924227 -115.565861 353 12998ft 268kts
03-Feb-19 12:08 35.986512 -115.519683 67 12233ft 300kts
03-Feb-19 12:09 36.015284 -115.423460 66 11263ft 297kts
03-Feb-19 12:10 36.027679 -115.325098 99 10225ft 290kts
03-Feb-19 12:11 36.019911 -115.226561 98 9138ft 284kts
03-Feb-19 12:12 36.013324 -115.131254 98 8310ft 276kts
03-Feb-19 12:13 36.007243 -115.037349 97 7976ft 273kts
03-Feb-19 12:14 36.001700 -114.943671 97 7975ft 273kts
03-Feb-19 12:15 35.996094 -114.850409 98 7975ft 272kts
03-Feb-19 12:16 35.990078 -114.757457 99 7974ft 268kts
03-Feb-19 12:17 35.985001 -114.679167 101 7927ft 190kts
03-Feb-19 12:18 35.997671 -114.618483 16 7951ft 192kts
03-Feb-19 12:19 36.026886 -114.649590 280 6955ft 160kts
03-Feb-19 12:20 36.042378 -114.703696 280 5166ft 175kts
03-Feb-19 12:21 36.058552 -114.762461 280 4971ft 180kts
03-Feb-19 12:22 36.075510 -114.820989 280 4969ft 180kts
03-Feb-19 12:23 36.074461 -114.876148 259 4959ft 160kts
03-Feb-19 12:24 36.074032 -114.930816 260 4931ft 156kts
03-Feb-19 12:25 36.073873 -114.982657 260 4427ft 144kts
03-Feb-19 12:26 36.073735 -115.033058 260 3686ft 148kts
03-Feb-19 12:27 36.073676 -115.084525 262 2893ft 148kts
03-Feb-19 12:28 36.073697 -115.133474 265 2191ft 138kts
03-Feb-19 12:29 36.073639 -115.145095 263 2190ft 7kts
03-Feb-19 12:30 36.073974 -115.148686 287 2190ft 12kts
03-Feb-19 12:31 36.074616 -115.150287 300 2190ft 6kts
03-Feb-19 12:32 36.077677 -115.152543 12 2190ft 15kts
03-Feb-19 12:33 36.078698 -115.151353 311 2190ft 0kts
03-Feb-19 12:34 36.080681 -115.151892 36 2190ft 11kts
03-Feb-19 12:35 36.082314 -115.150445 318 2190ft 0kts
03-Feb-19 12:36 36.082435 -115.150577 318 2190ft 0kts
03-Feb-19 12:37 36.082435 -115.150577 318 2190ft 0kts
03-Feb-19 12:38 36.082435 -115.150577 318 2190ft 0kts
03-Feb-19 12:39 36.082435 -115.150577 318 2190ft 0kts
03-Feb-19 12:40 36.082435 -115.150577 318 2190ft 0kts
03-Feb-19 12:41 36.082435 -115.150577 318 2190ft 0kts

Navigation Log

Ident Type
Flight plan parsing failed, navigation log unavailable